Time;durP1;ratioP1;P1;durP2;ratioP2;P2;SDS_P1;SDS_P2;PMS_P1;PMS_P2;Temp;Humidity;BMP_temperature;BMP_pressure;BME280_temperature;BME280_humidity;BME280_pressure;Samples;Min_cycle;Max_cycle;Signal;HPM_P1;HPM_P2
2021/10/12 00:01:15;;;;;;;60.12;36.83;;;;;;;5.23;70.71;99752.36;1706356;82;21056;-63
2021/10/12 00:03:44;;;;;;;55.70;35.70;;;;;;;5.23;71.11;99744.09;1713867;82;21644;-63
2021/10/12 00:06:11;;;;;;;54.20;36.77;;;;;;;5.36;71.51;99747.77;1711720;82;21649;-64
2021/10/12 00:08:41;;;;;;;60.73;38.42;;;;;;;5.38;71.53;99750.75;1724625;80;21485;-65
2021/10/12 00:11:10;;;;;;;56.63;36.75;;;;;;;5.33;71.49;99743.91;1717480;81;21487;-65
2021/10/12 00:13:37;;;;;;;65.45;38.55;;;;;;;5.29;71.56;99742.26;1714108;82;21074;-64
2021/10/12 00:16:05;;;;;;;54.80;37.58;;;;;;;5.24;71.32;99738.00;1725949;81;21446;-64
2021/10/12 00:18:32;;;;;;;;;;;;;;;5.22;71.14;99738.92;1725500;81;21499;-64
2021/10/12 00:20:59;;;;;;;59.73;38.00;;;;;;;5.16;71.22;99736.00;1723959;82;20458;-64
2021/10/12 00:23:26;;;;;;;50.85;34.23;;;;;;;5.09;70.80;99738.30;1721764;82;21814;-64
2021/10/12 00:25:53;;;;;;;54.77;35.43;;;;;;;5.07;70.97;99728.34;1719141;82;21463;-64
2021/10/12 00:28:19;;;;;;;56.68;35.52;;;;;;;5.18;70.76;99728.12;1707954;82;21005;-64
2021/10/12 00:30:47;;;;;;;51.20;35.52;;;;;;;5.16;70.82;99725.99;1721785;82;21593;-63
2021/10/12 00:33:14;;;;;;;61.02;37.63;;;;;;;5.11;70.54;99727.84;1716258;82;26372;-63
2021/10/12 00:35:41;;;;;;;57.67;36.53;;;;;;;5.06;70.57;99724.86;1715811;82;21942;-62
2021/10/12 00:38:08;;;;;;;55.85;37.25;;;;;;;5.02;70.64;99728.87;1722615;81;28866;-63
2021/10/12 00:40:37;;;;;;;58.00;39.23;;;;;;;4.96;70.86;99725.94;1712837;80;21518;-62
2021/10/12 00:43:05;;;;;;;57.38;36.55;;;;;;;4.94;70.71;99719.89;1711512;82;21487;-63
2021/10/12 00:45:33;;;;;;;57.25;35.58;;;;;;;4.96;71.00;99723.78;1705180;81;21648;-63
2021/10/12 00:48:03;;;;;;;54.38;36.40;;;;;;;5.04;71.12;99717.97;1714861;81;21820;-63
2021/10/12 00:50:33;;;;;;;62.17;38.25;;;;;;;5.02;71.10;99716.69;1714320;82;21578;-63
2021/10/12 00:53:00;;;;;;;62.58;37.55;;;;;;;4.96;71.14;99711.60;1722467;82;21489;-62
2021/10/12 00:55:27;;;;;;;;;;;;;;;4.91;71.29;99709.97;1724751;80;21491;-62
2021/10/12 00:57:54;;;;;;;60.87;38.10;;;;;;;4.90;71.97;99713.03;1731941;82;20430;-63
2021/10/12 01:00:21;;;;;;;62.50;37.78;;;;;;;4.88;71.36;99710.90;1713639;80;22052;-63
2021/10/12 01:02:49;;;;;;;50.55;33.95;;;;;;;4.84;71.40;99710.52;1700014;82;21566;-64
2021/10/12 01:05:16;;;;;;;53.52;35.50;;;;;;;4.86;71.72;99700.95;1719904;82;21613;-63
2021/10/12 01:07:43;;;;;;;56.73;35.68;;;;;;;4.93;72.07;99699.07;1718302;82;21394;-63
2021/10/12 01:10:10;;;;;;;58.37;35.57;;;;;;;4.92;72.25;99696.92;1666205;83;21521;-63
2021/10/12 01:12:38;;;;;;;60.28;37.53;;;;;;;4.86;72.49;99697.05;1717781;81;21851;-63
2021/10/12 01:15:07;;;;;;;54.20;36.93;;;;;;;4.84;72.53;99689.67;1714981;82;21694;-63
2021/10/12 01:17:38;;;;;;;61.90;37.78;;;;;;;4.81;72.52;99690.59;1716769;82;21542;-63
2021/10/12 01:20:08;;;;;;;52.90;34.70;;;;;;;4.81;72.71;99687.14;1722075;81;21515;-63
2021/10/12 01:22:34;;;;;;;56.65;34.67;;;;;;;4.84;72.63;99680.13;1692987;82;21089;-63
2021/10/12 01:25:02;;;;;;;58.87;35.90;;;;;;;5.00;72.85;99679.38;1647809;85;21852;-63
2021/10/12 01:27:29;;;;;;;;;;;;;;;5.02;72.48;99678.91;1720651;81;21561;-63
2021/10/12 01:29:56;;;;;;;52.67;34.48;;;;;;;4.98;73.13;99681.16;1721541;81;20147;-63
2021/10/12 01:32:22;;;;;;;53.80;36.95;;;;;;;4.96;72.71;99675.13;1717212;81;21537;-63
2021/10/12 01:34:50;;;;;;;54.80;34.85;;;;;;;4.96;72.71;99678.18;1712239;82;21613;-64
2021/10/12 01:37:17;;;;;;;51.55;35.13;;;;;;;4.96;72.66;99672.97;1721145;82;21562;-63
2021/10/12 01:39:43;;;;;;;46.28;30.15;;;;;;;4.93;72.70;99675.17;1724143;82;21605;-63
2021/10/12 01:42:11;;;;;;;46.45;29.98;;;;;;;4.95;72.83;99677.30;1714831;82;21502;-63
2021/10/12 01:44:37;;;;;;;49.05;31.33;;;;;;;5.02;72.75;99674.14;1724102;82;21479;-63
2021/10/12 01:47:05;;;;;;;56.63;34.35;;;;;;;4.94;72.52;99671.69;1672140;82;21582;-63
2021/10/12 01:49:32;;;;;;;51.53;31.20;;;;;;;4.87;72.74;99670.94;1697963;82;21891;-63
2021/10/12 01:52:00;;;;;;;48.38;32.80;;;;;;;4.86;72.84;99664.02;1705676;82;21041;-63
2021/10/12 01:54:26;;;;;;;49.42;33.83;;;;;;;4.88;72.63;99664.85;1713630;82;20991;-62
2021/10/12 01:56:53;;;;;;;52.85;31.02;;;;;;;4.88;72.83;99668.76;1717926;82;21627;-64
2021/10/12 01:59:21;;;;;;;49.37;31.37;;;;;;;4.91;73.04;99669.13;1709855;82;21549;-64
2021/10/12 02:01:50;;;;;;;48.30;32.53;;;;;;;5.04;73.36;99666.70;1715097;81;21429;-62
2021/10/12 02:04:17;;;;;;;46.80;32.28;;;;;;;5.05;73.54;99662.37;1703619;82;21392;-63
2021/10/12 02:06:44;;;;;;;55.45;34.45;;;;;;;5.06;73.95;99661.01;1710941;81;21056;-63
2021/10/12 02:09:11;;;;;;;54.60;35.48;;;;;;;5.04;73.60;99658.87;1707735;82;21523;-62
2021/10/12 02:11:39;;;;;;;57.60;34.50;;;;;;;5.02;73.68;99651.54;1715326;82;21542;-63
2021/10/12 02:14:07;;;;;;;50.03;32.17;;;;;;;5.02;73.40;99647.63;1713586;82;21819;-63
2021/10/12 02:16:35;;;;;;;47.08;31.55;;;;;;;5.04;73.87;99644.55;1713074;81;21901;-63
2021/10/12 02:19:02;;;;;;;50.25;33.30;;;;;;;5.18;73.87;99652.53;1709068;80;21471;-63
2021/10/12 02:21:28;;;;;;;49.88;34.45;;;;;;;5.20;73.74;99644.26;1677008;82;21490;-63
2021/10/12 02:23:57;;;;;;;52.93;33.45;;;;;;;5.18;74.05;99648.62;1674668;83;21639;-63
2021/10/12 02:26:24;;;;;;;48.25;34.45;;;;;;;5.16;73.88;99643.46;1677247;82;21778;-63
2021/10/12 02:28:51;;;;;;;49.33;34.23;;;;;;;5.14;73.82;99643.06;1673180;84;21598;-63
2021/10/12 02:31:18;;;;;;;54.42;33.08;;;;;;;5.10;73.68;99642.72;1681529;84;21557;-63
2021/10/12 02:33:45;;;;;;;51.47;33.90;;;;;;;5.11;73.93;99641.84;1671759;84;21613;-63
2021/10/12 02:36:12;;;;;;;49.42;34.75;;;;;;;5.22;74.01;99639.87;1668824;84;21538;-63
2021/10/12 02:38:40;;;;;;;58.50;36.58;;;;;;;5.22;74.21;99632.05;1669896;84;21549;-63
2021/10/12 02:41:07;;;;;;;57.27;36.48;;;;;;;5.22;74.05;99633.35;1668291;84;21472;-62
2021/10/12 02:43:34;;;;;;;56.58;38.30;;;;;;;5.20;74.24;99632.08;1671480;84;21557;-63
2021/10/12 02:46:01;;;;;;;56.55;36.70;;;;;;;5.20;74.22;99626.86;1672808;84;21563;-63
2021/10/12 02:48:29;;;;;;;48.20;34.27;;;;;;;5.19;74.15;99625.13;1666593;84;21068;-62
2021/10/12 02:50:57;;;;;;;53.83;36.10;;;;;;;5.24;74.21;99618.08;1666138;84;22175;-63
2021/10/12 02:53:24;;;;;;;49.95;34.88;;;;;;;5.33;74.20;99613.13;1681580;83;21537;-64
2021/10/12 02:55:53;;;;;;;57.17;35.88;;;;;;;5.31;74.17;99613.58;1683649;83;21516;-63
2021/10/12 02:58:21;;;;;;;56.02;35.75;;;;;;;5.25;74.20;99602.87;1676774;83;21060;-62
2021/10/12 03:00:48;;;;;;;53.13;37.40;;;;;;;5.24;74.25;99602.89;1669545;84;21518;-65
2021/10/12 03:03:15;;;;;;;55.67;37.80;;;;;;;5.23;74.29;99608.98;1668178;84;21986;-64
2021/10/12 03:05:46;;;;;;;46.60;32.60;;;;;;;5.21;74.01;99600.34;1668462;84;21571;-63
2021/10/12 03:08:13;;;;;;;45.15;32.13;;;;;;;5.24;74.21;99603.74;1671906;83;21626;-63
2021/10/12 03:10:41;;;;;;;49.05;33.02;;;;;;;5.38;73.99;99598.66;1670608;83;21681;-64
2021/10/12 03:13:09;;;;;;;51.65;32.88;;;;;;;5.38;73.93;99596.06;1664370;84;21654;-65
2021/10/12 03:15:36;;;;;;;44.80;32.10;;;;;;;5.37;73.87;99595.21;1664328;84;21836;-66
2021/10/12 03:18:02;;;;;;;49.83;33.33;;;;;;;5.36;73.71;99595.23;1669374;84;21594;-63
2021/10/12 03:20:30;;;;;;;48.52;32.33;;;;;;;5.34;73.50;99595.27;1676232;84;21700;-62
2021/10/12 03:22:57;;;;;;;46.18;30.23;;;;;;;5.32;73.72;99591.84;1675026;84;21025;-65
2021/10/12 03:25:24;;;;;;;45.78;30.55;;;;;;;5.35;73.47;99598.30;1663176;84;21011;-63
2021/10/12 03:27:51;;;;;;;42.75;29.55;;;;;;;5.45;73.45;99601.10;1671495;83;21518;-64
2021/10/12 03:30:19;;;;;;;;;;;;;;;5.44;73.46;99600.70;1681393;83;21624;-64
2021/10/12 03:32:45;;;;;;;47.80;31.48;;;;;;;5.39;73.50;99588.20;1670023;83;20450;-64
2021/10/12 03:35:15;;;;;;;48.23;31.68;;;;;;;5.32;73.37;99584.47;1668385;83;21523;-65
2021/10/12 03:37:42;;;;;;;45.95;32.30;;;;;;;5.25;73.23;99577.22;1673150;83;21646;-64
2021/10/12 03:40:11;;;;;;;47.88;32.78;;;;;;;5.22;73.29;99577.30;1668228;84;21746;-68
2021/10/12 03:42:38;;;;;;;42.48;30.30;;;;;;;5.21;73.20;99578.19;1640945;84;21598;-64
2021/10/12 03:45:06;;;;;;;41.90;29.32;;;;;;;5.24;73.29;99579.43;1647657;83;21554;-64
2021/10/12 03:47:34;;;;;;;43.83;32.30;;;;;;;5.34;73.46;99575.72;1670763;84;21636;-64
2021/10/12 03:50:01;;;;;;;46.98;32.35;;;;;;;5.35;73.53;99577.44;1663797;84;21570;-64
2021/10/12 03:52:30;;;;;;;47.67;33.92;;;;;;;5.33;73.48;99574.02;1648491;85;22116;-64
2021/10/12 03:54:57;;;;;;;52.15;33.73;;;;;;;5.29;73.37;99578.02;1661219;83;21025;-64
2021/10/12 03:57:24;;;;;;;49.35;36.48;;;;;;;5.26;73.57;99577.19;1654701;85;21543;-67
2021/10/12 03:59:51;;;;;;;46.85;32.58;;;;;;;5.20;73.31;99572.58;1709771;82;21574;-63
2021/10/12 04:02:18;;;;;;;55.83;33.90;;;;;;;5.23;73.46;99576.40;1703556;82;21602;-64
2021/10/12 04:04:45;;;;;;;57.08;35.45;;;;;;;5.29;73.51;99576.25;1702202;82;21703;-64
2021/10/12 04:07:12;;;;;;;57.48;34.38;;;;;;;5.25;73.43;99573.31;1699446;82;21085;-63
2021/10/12 04:09:39;;;;;;;52.95;37.42;;;;;;;5.21;73.40;99571.67;1676963;83;21546;-63
2021/10/12 04:12:08;;;;;;;53.00;34.58;;;;;;;5.17;73.61;99574.78;1649583;83;21515;-63
2021/10/12 04:14:35;;;;;;;54.97;37.10;;;;;;;5.14;73.62;99566.17;1665237;84;21572;-64
2021/10/12 04:17:24;;;;;;;53.02;34.55;;;;;;;5.10;73.69;99560.16;1658634;84;21663;-64
2021/10/12 04:19:51;;;;;;;46.70;32.60;;;;;;;5.15;73.49;99560.08;1689395;82;21571;-64
2021/10/12 04:22:18;;;;;;;49.33;33.73;;;;;;;5.16;73.44;99557.87;1694150;82;21499;-62
2021/10/12 04:24:45;;;;;;;50.60;34.25;;;;;;;5.11;73.46;99549.31;1695792;82;21574;-62
2021/10/12 04:27:12;;;;;;;49.60;34.70;;;;;;;5.06;73.67;99556.77;1687560;82;21513;-62
2021/10/12 04:29:40;;;;;;;57.15;35.70;;;;;;;5.03;73.42;99551.64;1685955;82;22621;-63
2021/10/12 04:32:09;;;;;;;57.13;37.20;;;;;;;4.96;73.37;99548.75;1692601;84;21606;-63
2021/10/12 04:34:36;;;;;;;52.00;33.65;;;;;;;4.94;73.54;99549.23;1691914;83;21732;-62
2021/10/12 04:37:03;;;;;;;43.60;31.20;;;;;;;4.99;73.83;99547.39;1689325;82;21494;-63
2021/10/12 04:39:31;;;;;;;48.92;32.95;;;;;;;5.07;74.04;99549.38;1687715;82;21487;-63
2021/10/12 04:42:01;;;;;;;48.03;32.70;;;;;;;5.04;73.79;99544.22;1690209;82;21831;-64
2021/10/12 04:44:29;;;;;;;47.85;33.40;;;;;;;4.95;73.80;99544.41;1681855;84;21491;-64
2021/10/12 04:46:56;;;;;;;52.30;35.38;;;;;;;4.90;73.85;99549.31;1661985;82;21519;-64
2021/10/12 04:49:23;;;;;;;49.30;32.17;;;;;;;4.86;73.95;99540.73;1687786;84;21507;-64
2021/10/12 04:52:10;;;;;;;48.20;31.10;;;;;;;4.92;74.13;99540.59;1690741;84;21554;-64
2021/10/12 04:54:37;;;;;;;40.58;30.43;;;;;;;4.92;74.13;99540.59;1686095;83;22243;-64
2021/10/12 04:57:04;;;;;;;51.53;32.80;;;;;;;5.09;74.34;99545.89;1687167;83;21514;-65
2021/10/12 04:59:32;;;;;;;52.83;32.23;;;;;;;5.13;74.27;99543.17;1688983;83;21029;-64
2021/10/12 05:01:59;;;;;;;51.50;36.73;;;;;;;5.12;74.29;99544.05;1708937;82;21441;-64
2021/10/12 05:04:25;;;;;;;54.18;36.85;;;;;;;5.12;74.43;99540.59;1708866;82;21506;-64
2021/10/12 05:06:54;;;;;;;53.95;33.83;;;;;;;5.11;74.15;99533.67;1710234;82;22078;-65
2021/10/12 05:09:21;;;;;;;49.30;33.23;;;;;;;5.12;74.18;99528.86;1705895;82;21500;-64
2021/10/12 05:11:49;;;;;;;50.52;35.58;;;;;;;5.22;74.42;99529.08;1707115;82;22262;-64
2021/10/12 05:14:18;;;;;;;50.78;34.38;;;;;;;5.28;74.86;99528.09;1708134;82;21483;-64
2021/10/12 05:16:45;;;;;;;53.30;36.95;;;;;;;5.32;74.87;99527.97;1711025;82;21571;-64
2021/10/12 05:19:13;;;;;;;53.10;36.28;;;;;;;5.36;74.93;99526.14;1711230;82;22186;-65
2021/10/12 05:21:42;;;;;;;55.70;35.17;;;;;;;5.36;74.85;99526.14;1697394;82;21051;-65
2021/10/12 05:24:10;;;;;;;49.70;34.40;;;;;;;5.43;75.04;99519.45;1697378;82;21634;-65
2021/10/12 05:26:37;;;;;;;50.92;34.20;;;;;;;5.62;74.90;99522.92;1698529;82;21086;-65
2021/10/12 05:29:04;;;;;;;52.03;34.73;;;;;;;5.68;74.85;99530.59;1693464;82;21583;-65
2021/10/12 05:31:32;;;;;;;50.48;34.88;;;;;;;5.70;74.83;99531.40;1710443;82;21767;-64
2021/10/12 05:34:00;;;;;;;58.35;37.88;;;;;;;5.72;74.55;99530.06;1704157;82;21563;-63
2021/10/12 05:36:27;;;;;;;45.28;32.13;;;;;;;5.73;74.30;99525.27;1698533;82;21528;-62
2021/10/12 05:38:55;;;;;;;43.33;31.60;;;;;;;5.78;74.51;99527.30;1697314;82;20984;-62
2021/10/12 05:41:21;;;;;;;48.42;33.60;;;;;;;5.92;74.81;99523.90;1693399;82;21074;-62
2021/10/12 05:43:48;;;;;;;52.33;34.47;;;;;;;6.02;74.59;99524.55;1700980;82;21993;-63
2021/10/12 05:46:15;;;;;;;46.18;33.20;;;;;;;6.04;74.63;99520.14;1698974;82;21599;-63
2021/10/12 05:48:42;;;;;;;51.42;34.63;;;;;;;6.08;74.48;99517.84;1700588;82;21560;-61
2021/10/12 05:51:12;;;;;;;47.48;33.55;;;;;;;6.13;74.27;99514.67;1693114;82;21058;-63
2021/10/12 05:56:12;;;;;;;43.50;30.52;;;;;;;6.31;73.95;99520.30;1663583;84;22179;-62
2021/10/12 05:58:45;;;;;;;48.30;33.20;;;;;;;6.47;73.63;99522.05;1709567;82;21484;-63
2021/10/12 06:01:12;;;;;;;41.88;33.08;;;;;;;6.54;73.45;99522.30;1666693;84;21434;-55
2021/10/12 06:03:39;;;;;;;48.13;35.50;;;;;;;6.62;73.22;99527.69;1697098;83;21125;-55
2021/10/12 06:06:06;;;;;;;50.93;35.13;;;;;;;6.69;73.23;99528.37;1684955;83;21597;-55
2021/10/12 06:08:34;;;;;;;47.43;34.65;;;;;;;6.78;73.03;99517.66;1696361;83;21776;-55
2021/10/12 06:11:02;;;;;;;49.83;33.30;;;;;;;6.87;72.65;99522.20;1686454;83;21526;-55
2021/10/12 06:13:29;;;;;;;48.23;32.55;;;;;;;7.01;72.73;99522.66;1699539;82;21564;-55
2021/10/12 06:15:56;;;;;;;45.47;32.73;;;;;;;7.23;72.64;99514.99;1689366;82;21597;-55
2021/10/12 06:18:23;;;;;;;47.13;33.60;;;;;;;7.40;72.33;99523.19;1674241;83;21816;-56
2021/10/12 06:20:51;;;;;;;51.37;33.48;;;;;;;7.51;71.79;99515.44;1653351;83;21586;-54
2021/10/12 06:23:17;;;;;;;54.18;34.90;;;;;;;7.61;71.32;99518.17;1676308;83;21573;-54
2021/10/12 06:25:49;;;;;;;46.45;35.08;;;;;;;7.70;70.63;99520.45;1688744;82;21683;-55
2021/10/12 06:28:14;;;;;;;50.33;33.80;;;;;;;7.74;69.99;99512.05;1685886;82;21529;-54
2021/10/12 06:30:44;;;;;;;50.52;36.20;;;;;;;7.83;69.62;99517.45;1693649;82;21567;-54
2021/10/12 06:33:11;;;;;;;52.83;32.78;;;;;;;7.87;69.25;99515.13;1690159;82;22149;-54
2021/10/12 06:35:38;;;;;;;44.77;31.45;;;;;;;7.95;69.38;99508.73;1690766;82;21051;-55
2021/10/12 06:38:05;;;;;;;44.73;34.00;;;;;;;8.10;69.07;99507.35;1688564;82;21521;-55
2021/10/12 06:40:34;;;;;;;48.10;35.10;;;;;;;8.19;68.54;99514.02;1689518;82;21520;-55
2021/10/12 06:43:01;;;;;;;51.15;35.43;;;;;;;8.24;68.43;99515.17;1690184;82;26196;-56
2021/10/12 06:45:28;;;;;;;58.95;39.00;;;;;;;8.30;68.26;99511.02;1690666;82;21794;-56
2021/10/12 06:47:55;;;;;;;56.42;38.10;;;;;;;8.39;68.16;99514.63;1658057;84;21647;-55
2021/10/12 06:50:23;;;;;;;62.05;38.02;;;;;;;8.46;67.62;99510.06;1685219;82;21659;-56
2021/10/12 06:52:50;;;;;;;57.33;38.00;;;;;;;8.52;67.40;99514.61;1693274;82;21603;-55
2021/10/12 06:55:17;;;;;;;61.58;35.90;;;;;;;8.57;67.19;99507.91;1701242;82;21730;-55
2021/10/12 06:57:44;;;;;;;52.38;34.40;;;;;;;8.63;66.69;99506.37;1694063;82;22079;-55
2021/10/12 07:00:13;;;;;;;52.58;34.90;;;;;;;8.67;66.44;99505.34;1700690;82;21556;-56
2021/10/12 07:02:42;;;;;;;49.40;32.33;;;;;;;8.72;66.46;99503.84;1697299;82;21560;-55
2021/10/12 07:05:10;;;;;;;49.10;32.55;;;;;;;8.87;66.72;99502.41;1703525;82;21457;-56
2021/10/12 07:07:38;;;;;;;45.10;32.88;;;;;;;9.09;66.30;99494.58;1720184;82;21554;-57
2021/10/12 07:10:08;;;;;;;47.43;32.63;;;;;;;9.20;65.31;99496.33;1709842;82;21444;-55
2021/10/12 07:12:35;;;;;;;52.33;33.73;;;;;;;9.27;65.32;99497.80;1709238;82;21601;-56
2021/10/12 07:15:04;;;;;;;52.43;35.25;;;;;;;9.39;64.92;99499.53;1711956;82;21505;-56
2021/10/12 07:17:32;;;;;;;51.68;34.13;;;;;;;9.50;64.71;99490.77;1708662;82;21584;-56
2021/10/12 07:19:59;;;;;;;49.13;35.68;;;;;;;9.56;64.28;99493.13;1705768;82;21432;-56
2021/10/12 07:22:26;;;;;;;54.63;34.90;;;;;;;9.66;64.40;99490.55;1706270;82;21402;-56
2021/10/12 07:24:58;;;;;;;43.45;33.50;;;;;;;9.74;63.98;99484.50;1704280;82;21521;-55
2021/10/12 07:27:23;;;;;;;53.52;34.70;;;;;;;9.83;63.80;99488.52;1713295;81;21613;-57
2021/10/12 07:29:53;;;;;;;46.13;33.67;;;;;;;9.93;63.72;99481.95;1692853;83;21106;-56
2021/10/12 07:32:19;;;;;;;52.13;35.75;;;;;;;10.03;63.53;99488.97;1715551;82;21397;-56
2021/10/12 07:34:47;;;;;;;48.15;34.00;;;;;;;10.13;63.12;99482.85;1710476;82;21833;-56
2021/10/12 07:37:14;;;;;;;49.30;34.27;;;;;;;10.22;63.10;99486.86;1718096;82;21082;-58
2021/10/12 07:39:41;;;;;;;51.27;36.03;;;;;;;10.32;62.90;99485.55;1712881;82;20959;-56
2021/10/12 07:42:11;;;;;;;55.83;35.17;;;;;;;10.43;62.61;99486.41;1714818;82;21589;-57
2021/10/12 07:44:39;;;;;;;49.53;35.58;;;;;;;10.54;62.36;99479.36;1720950;82;21480;-56
2021/10/12 07:47:06;;;;;;;45.88;35.98;;;;;;;10.67;62.26;99472.14;1711467;82;21730;-56
2021/10/12 07:49:35;;;;;;;54.05;36.70;;;;;;;10.79;62.14;99469.88;1709369;82;21079;-56
2021/10/12 07:52:06;;;;;;;;;;;;;;;10.93;61.96;99473.20;1656341;85;21570;-56
2021/10/12 07:54:49;;;;;;;51.85;32.28;;;;;;;11.07;61.74;99470.27;1693297;82;20461;-56
2021/10/12 07:57:16;;;;;;;48.85;31.73;;;;;;;11.18;61.13;99464.50;1691055;83;21068;-54
2021/10/12 07:59:43;;;;;;;46.05;27.62;;;;;;;11.31;60.66;99464.77;1682590;83;22082;-57
2021/10/12 08:02:13;;;;;;;43.20;28.98;;;;;;;11.45;60.37;99460.13;1687841;83;21605;-59
2021/10/12 08:04:41;;;;;;;40.43;27.85;;;;;;;11.57;60.01;99460.02;1682541;83;22305;-55
2021/10/12 08:07:07;;;;;;;44.40;26.90;;;;;;;11.70;59.57;99459.78;1690103;83;21446;-58
2021/10/12 08:09:34;;;;;;;36.08;27.67;;;;;;;11.84;59.12;99453.33;1706407;82;21587;-59
2021/10/12 08:12:05;;;;;;;39.67;28.60;;;;;;;12.19;58.11;99444.12;1688741;83;21990;-58
2021/10/12 08:14:37;;;;;;;39.40;26.07;;;;;;;12.19;58.11;99444.12;1686547;83;21522;-58
2021/10/12 08:17:02;;;;;;;41.30;25.65;;;;;;;12.36;57.36;99439.74;1688495;83;21430;-58
2021/10/12 08:19:28;;;;;;;36.47;24.37;;;;;;;12.53;57.24;99436.20;1685735;83;21539;-59
2021/10/12 08:21:56;;;;;;;34.58;22.40;;;;;;;12.69;56.44;99431.77;1701172;82;21584;-58
2021/10/12 08:24:23;;;;;;;29.57;22.60;;;;;;;12.83;55.50;99425.75;1703368;82;21769;-59
2021/10/12 08:26:51;;;;;;;33.92;23.40;;;;;;;12.97;55.67;99423.17;1703481;82;21504;-59
2021/10/12 08:29:18;;;;;;;32.13;23.98;;;;;;;13.15;55.78;99417.81;1676208;82;21655;-57
2021/10/12 08:31:46;;;;;;;32.63;22.70;;;;;;;13.32;54.38;99415.08;1711115;82;20980;-57
2021/10/12 08:34:27;;;;;;;38.15;24.37;;;;;;;13.41;53.87;99405.75;1692660;83;21576;-60
2021/10/12 08:36:54;;;;;;;31.20;20.75;;;;;;;13.51;54.18;99410.05;1676919;83;21763;-57
2021/10/12 08:39:29;;;;;;;36.05;24.32;;;;;;;13.64;53.29;99408.39;1726601;80;21062;-58
2021/10/12 08:41:55;;;;;;;22.98;17.45;;;;;;;13.72;53.29;99409.25;1725729;82;21518;-59
2021/10/12 08:44:20;;;;;;;27.42;15.72;;;;;;;13.87;52.77;99402.20;1726037;80;21072;-59
2021/10/12 08:46:48;;;;;;;21.00;14.53;;;;;;;14.05;52.21;99402.86;1724324;80;21495;-58
2021/10/12 08:49:15;;;;;;;22.42;13.60;;;;;;;14.18;51.21;99394.56;1720435;82;21763;-59
2021/10/12 08:51:44;;;;;;;19.42;13.35;;;;;;;14.28;50.19;99394.83;1727140;80;21510;-58
2021/10/12 08:54:12;;;;;;;22.77;14.98;;;;;;;14.35;50.15;99394.39;1723997;82;21601;-58
2021/10/12 08:56:39;;;;;;;25.75;16.32;;;;;;;14.45;49.88;99400.39;1740241;80;21424;-60
2021/10/12 08:59:06;;;;;;;24.40;16.77;;;;;;;14.48;49.36;99391.80;1729745;82;21509;-60
2021/10/12 09:01:54;;;;;;;35.50;18.98;;;;;;;14.48;49.00;99390.48;1732863;80;21789;-60
2021/10/12 09:05:16;;;;;;;26.42;17.75;;;;;;;14.56;49.07;99379.41;1846477;74;23064;-57
2021/10/12 09:07:44;;;;;;;28.62;16.97;;;;;;;14.55;49.14;99380.37;1786468;78;21489;-56
2021/10/12 09:10:20;;;;;;;28.67;17.48;;;;;;;14.64;49.08;99375.85;1789721;77;22421;-57
2021/10/12 09:12:49;;;;;;;32.28;21.75;;;;;;;14.72;48.74;99371.39;1820266;75;21078;-58
2021/10/12 09:15:17;;;;;;;35.75;23.12;;;;;;;14.78;48.97;99374.95;1833900;75;21572;-59
2021/10/12 09:17:46;;;;;;;36.75;24.60;;;;;;;14.88;48.75;99369.91;1826262;77;21443;-58
2021/10/12 09:20:20;;;;;;;30.17;19.23;;;;;;;14.99;48.70;99374.03;1838949;75;21417;-59
2021/10/12 09:23:09;;;;;;;29.52;21.15;;;;;;;15.08;48.20;99367.30;1839712;75;21664;-57
2021/10/12 09:25:41;;;;;;;29.70;21.57;;;;;;;15.14;48.22;99352.31;1834456;75;21623;-60
2021/10/12 09:28:22;;;;;;;38.95;22.37;;;;;;;15.31;48.00;99357.81;1835560;75;21426;-57
2021/10/12 09:30:53;;;;;;;30.12;21.07;;;;;;;15.43;47.61;99352.19;1830591;75;21537;-59
2021/10/12 09:33:20;;;;;;;31.23;21.30;;;;;;;15.53;47.42;99351.44;1837240;75;21085;-59
2021/10/12 09:35:47;;;;;;;22.40;19.50;;;;;;;15.61;47.11;99354.05;1825850;75;21798;-58
2021/10/12 09:38:15;;;;;;;22.10;16.15;;;;;;;15.66;46.85;99345.32;1821913;77;21572;-58
2021/10/12 09:40:44;;;;;;;23.47;15.93;;;;;;;15.72;46.54;99348.87;1851951;75;21557;-57
2021/10/12 09:43:13;;;;;;;21.10;15.85;;;;;;;15.70;45.17;99337.04;1830529;75;21489;-58
2021/10/12 09:45:43;;;;;;;25.92;15.85;;;;;;;15.65;46.62;99340.96;1803741;76;21433;-58
2021/10/12 09:48:34;;;;;;;23.47;17.25;;;;;;;15.72;46.67;99330.31;1844634;75;22111;-58
2021/10/12 09:51:13;;;;;;;21.30;12.75;;;;;;;15.88;46.63;99328.34;1782634;78;21439;-59
2021/10/12 09:53:43;;;;;;;18.80;11.28;;;;;;;16.05;45.98;99329.80;1825593;75;21505;-58
2021/10/12 09:56:12;;;;;;;21.50;12.18;;;;;;;16.04;45.79;99320.63;1853240;75;21429;-58
2021/10/12 09:58:40;;;;;;;18.75;12.35;;;;;;;15.91;45.46;99317.50;1841782;75;21545;-59
2021/10/12 10:01:08;;;;;;;21.37;12.47;;;;;;;15.83;45.57;99317.20;1830080;75;21789;-59
2021/10/12 10:03:37;;;;;;;18.70;14.30;;;;;;;15.71;45.67;99310.92;1821878;75;21125;-59
2021/10/12 10:06:12;;;;;;;15.88;12.68;;;;;;;15.66;45.93;99309.55;1823362;76;21410;-58
2021/10/12 10:08:48;;;;;;;17.80;12.45;;;;;;;15.60;45.88;99307.33;1825593;77;21531;-58
2021/10/12 10:11:15;;;;;;;14.55;10.80;;;;;;;15.57;46.12;99303.91;1827174;77;21444;-57
2021/10/12 10:13:43;;;;;;;20.35;12.88;;;;;;;15.60;46.02;99305.52;1821157;77;21779;-58
2021/10/12 10:16:11;;;;;;;15.23;11.48;;;;;;;15.62;46.11;99302.28;1816939;77;21630;-58
2021/10/12 10:18:40;;;;;;;12.20;9.88;;;;;;;15.67;46.22;99295.32;1822309;77;21534;-57
2021/10/12 10:21:09;;;;;;;13.08;9.35;;;;;;;15.68;45.88;99293.89;1831725;76;21701;-58
2021/10/12 10:24:02;;;;;;;19.65;11.93;;;;;;;15.65;45.52;99295.45;1819889;76;21552;-58
2021/10/12 10:26:35;;;;;;;18.92;12.93;;;;;;;15.52;46.08;99293.25;1791446;77;21806;-58
2021/10/12 10:29:22;;;;;;;13.88;8.53;;;;;;;15.47;46.25;99288.77;1826237;76;21463;-58
2021/10/12 10:31:58;;;;;;;11.73;8.18;;;;;;;15.48;46.26;99293.97;1809504;76;21412;-59
2021/10/12 10:34:35;;;;;;;12.88;9.53;;;;;;;15.52;46.12;99287.95;1823078;76;20987;-58
2021/10/12 10:37:21;;;;;;;15.83;8.50;;;;;;;15.56;45.84;99282.35;1821625;76;21405;-58
2021/10/12 10:39:58;;;;;;;11.03;8.63;;;;;;;15.57;45.57;99284.03;1812695;77;22000;-61
2021/10/12 10:42:49;;;;;;;15.00;7.95;;;;;;;15.58;45.89;99277.80;1827275;76;28562;-59
2021/10/12 10:45:17;;;;;;;9.78;8.65;;;;;;;15.58;45.82;99279.12;1756315;79;21543;-59
2021/10/12 10:47:50;;;;;;;21.62;16.02;;;;;;;15.55;45.59;99278.00;1785631;78;21412;-59
2021/10/12 10:50:29;;;;;;;15.63;10.15;;;;;;;15.51;45.84;99266.41;1761232;80;21570;-60
2021/10/12 10:53:01;;;;;;;11.25;9.25;;;;;;;15.51;46.08;99264.59;1736949;80;21861;-57
2021/10/12 10:55:33;;;;;;;16.12;10.20;;;;;;;15.54;45.58;99273.66;1774634;78;21653;-58
2021/10/12 10:58:07;;;;;;;14.80;9.68;;;;;;;15.53;45.70;99269.30;1780587;78;21584;-57
2021/10/12 11:00:49;;;;;;;19.87;11.18;;;;;;;15.52;45.40;99264.98;1763002;80;21049;-57
2021/10/12 11:03:39;;;;;;;44.35;30.00;;;;;;;15.49;45.51;99259.05;1781405;78;21381;-59
2021/10/12 11:06:16;;;;;;;41.92;31.70;;;;;;;15.33;44.83;99260.10;1771484;80;21794;-57
2021/10/12 11:08:57;;;;;;;28.02;19.40;;;;;;;15.22;45.74;99255.14;1758533;79;21593;-57
2021/10/12 11:11:24;;;;;;;22.95;13.83;;;;;;;15.17;45.71;99258.96;1769497;79;20980;-56
2021/10/12 11:13:51;;;;;;;20.77;12.53;;;;;;;15.12;45.70;99253.13;1760195;79;21418;-56
2021/10/12 11:16:18;;;;;;;17.80;12.82;;;;;;;15.07;46.16;99251.28;1765658;80;21420;-57
2021/10/12 11:18:48;;;;;;;14.55;12.43;;;;;;;15.03;46.19;99257.73;1750920;80;21748;-57
2021/10/12 11:21:16;;;;;;;24.20;13.85;;;;;;;15.01;46.19;99253.48;1750218;80;21614;-57
2021/10/12 11:23:51;;;;;;;19.57;14.13;;;;;;;14.96;46.17;99248.02;1758721;80;21649;-57
2021/10/12 11:26:21;;;;;;;15.18;11.60;;;;;;;14.93;46.52;99246.05;1779276;79;21475;-56
2021/10/12 11:28:52;;;;;;;22.05;12.33;;;;;;;14.95;46.16;99244.99;1760502;80;21551;-56
2021/10/12 11:31:21;;;;;;;13.43;10.58;;;;;;;14.96;46.25;99242.73;1753617;79;22108;-57
2021/10/12 11:33:53;;;;;;;24.55;16.27;;;;;;;14.98;46.26;99241.31;1771834;79;21606;-57
2021/10/12 11:36:23;;;;;;;16.67;11.97;;;;;;;14.99;46.12;99236.37;1754718;80;21518;-57